sensor_id;sensor_type;location;lat;lon;timestamp;P1;durP1;ratioP1;P2;durP2;ratioP2
53401;SDS011;39295;45.534;20.034;2023-04-25T00:00:03;30.90;;;24.80;;
53401;SDS011;39295;45.534;20.034;2023-04-25T00:02:32;27.55;;;23.75;;
53401;SDS011;39295;45.534;20.034;2023-04-25T00:05:00;28.00;;;23.83;;
53401;SDS011;39295;45.534;20.034;2023-04-25T00:07:26;29.00;;;24.67;;
53401;SDS011;39295;45.534;20.034;2023-04-25T00:09:52;31.77;;;25.00;;
53401;SDS011;39295;45.534;20.034;2023-04-25T00:12:18;27.65;;;24.23;;
53401;SDS011;39295;45.534;20.034;2023-04-25T00:14:45;30.70;;;25.50;;
53401;SDS011;39295;45.534;20.034;2023-04-25T00:17:11;29.58;;;25.98;;
53401;SDS011;39295;45.534;20.034;2023-04-25T00:19:37;29.63;;;26.02;;
53401;SDS011;39295;45.534;20.034;2023-04-25T00:22:03;37.47;;;27.50;;
53401;SDS011;39295;45.534;20.034;2023-04-25T00:24:30;34.28;;;27.05;;
53401;SDS011;39295;45.534;20.034;2023-04-25T00:26:56;34.33;;;28.13;;
53401;SDS011;39295;45.534;20.034;2023-04-25T00:29:22;35.88;;;28.27;;
53401;SDS011;39295;45.534;20.034;2023-04-25T00:31:48;36.92;;;29.05;;
53401;SDS011;39295;45.534;20.034;2023-04-25T00:34:14;35.53;;;28.80;;
53401;SDS011;39295;45.534;20.034;2023-04-25T00:36:41;35.03;;;29.55;;
53401;SDS011;39295;45.534;20.034;2023-04-25T00:39:07;32.63;;;29.00;;
53401;SDS011;39295;45.534;20.034;2023-04-25T00:41:33;36.88;;;30.67;;
53401;SDS011;39295;45.534;20.034;2023-04-25T00:43:59;34.20;;;28.60;;
53401;SDS011;39295;45.534;20.034;2023-04-25T00:46:26;33.35;;;25.02;;
53401;SDS011;39295;45.534;20.034;2023-04-25T00:48:52;35.13;;;24.13;;
53401;SDS011;39295;45.534;20.034;2023-04-25T00:51:21;29.35;;;23.38;;
53401;SDS011;39295;45.534;20.034;2023-04-25T00:53:48;30.52;;;23.15;;
53401;SDS011;39295;45.534;20.034;2023-04-25T00:56:15;27.52;;;22.42;;
53401;SDS011;39295;45.534;20.034;2023-04-25T00:58:41;27.92;;;21.10;;
53401;SDS011;39295;45.534;20.034;2023-04-25T01:01:08;29.27;;;21.15;;
53401;SDS011;39295;45.534;20.034;2023-04-25T01:03:34;28.95;;;20.85;;
53401;SDS011;39295;45.534;20.034;2023-04-25T01:06:06;29.33;;;21.98;;
53401;SDS011;39295;45.534;20.034;2023-04-25T01:08:32;28.20;;;22.13;;
53401;SDS011;39295;45.534;20.034;2023-04-25T01:11:00;30.40;;;22.20;;
53401;SDS011;39295;45.534;20.034;2023-04-25T01:13:26;27.15;;;20.23;;
53401;SDS011;39295;45.534;20.034;2023-04-25T01:15:52;23.08;;;19.15;;
53401;SDS011;39295;45.534;20.034;2023-04-25T01:18:18;23.35;;;19.88;;
53401;SDS011;39295;45.534;20.034;2023-04-25T01:20:45;22.55;;;17.65;;
53401;SDS011;39295;45.534;20.034;2023-04-25T01:23:12;24.02;;;18.80;;
53401;SDS011;39295;45.534;20.034;2023-04-25T01:25:38;22.10;;;18.38;;
53401;SDS011;39295;45.534;20.034;2023-04-25T01:28:05;22.27;;;18.15;;
53401;SDS011;39295;45.534;20.034;2023-04-25T01:30:31;24.10;;;17.95;;
53401;SDS011;39295;45.534;20.034;2023-04-25T01:32:57;22.48;;;17.98;;
53401;SDS011;39295;45.534;20.034;2023-04-25T01:35:24;22.63;;;18.23;;
53401;SDS011;39295;45.534;20.034;2023-04-25T01:37:51;21.45;;;18.33;;
53401;SDS011;39295;45.534;20.034;2023-04-25T01:40:17;23.42;;;18.50;;
53401;SDS011;39295;45.534;20.034;2023-04-25T01:42:44;23.92;;;19.13;;
53401;SDS011;39295;45.534;20.034;2023-04-25T01:45:10;21.77;;;18.10;;
53401;SDS011;39295;45.534;20.034;2023-04-25T01:47:38;25.63;;;19.50;;
53401;SDS011;39295;45.534;20.034;2023-04-25T01:50:05;22.05;;;19.10;;
53401;SDS011;39295;45.534;20.034;2023-04-25T01:52:31;22.17;;;18.25;;
53401;SDS011;39295;45.534;20.034;2023-04-25T01:54:58;21.23;;;17.50;;
53401;SDS011;39295;45.534;20.034;2023-04-25T01:57:25;22.60;;;17.38;;
53401;SDS011;39295;45.534;20.034;2023-04-25T01:59:51;20.90;;;17.35;;
53401;SDS011;39295;45.534;20.034;2023-04-25T02:02:19;20.98;;;17.40;;
53401;SDS011;39295;45.534;20.034;2023-04-25T02:04:45;21.75;;;18.50;;
53401;SDS011;39295;45.534;20.034;2023-04-25T02:07:11;22.95;;;18.27;;
53401;SDS011;39295;45.534;20.034;2023-04-25T02:09:37;22.60;;;17.63;;
53401;SDS011;39295;45.534;20.034;2023-04-25T02:12:04;29.05;;;23.85;;
53401;SDS011;39295;45.534;20.034;2023-04-25T02:14:30;30.77;;;27.48;;
53401;SDS011;39295;45.534;20.034;2023-04-25T02:16:56;27.15;;;22.92;;
53401;SDS011;39295;45.534;20.034;2023-04-25T02:19:22;32.00;;;27.88;;
53401;SDS011;39295;45.534;20.034;2023-04-25T02:21:48;31.40;;;23.30;;
53401;SDS011;39295;45.534;20.034;2023-04-25T02:24:14;21.70;;;18.45;;
53401;SDS011;39295;45.534;20.034;2023-04-25T02:26:40;17.27;;;14.82;;
53401;SDS011;39295;45.534;20.034;2023-04-25T02:29:06;12.63;;;10.75;;
53401;SDS011;39295;45.534;20.034;2023-04-25T02:31:32;11.93;;;10.02;;
53401;SDS011;39295;45.534;20.034;2023-04-25T02:33:58;9.15;;;8.15;;
53401;SDS011;39295;45.534;20.034;2023-04-25T02:36:24;11.35;;;9.13;;
53401;SDS011;39295;45.534;20.034;2023-04-25T02:38:51;9.88;;;8.38;;
53401;SDS011;39295;45.534;20.034;2023-04-25T02:41:17;10.35;;;7.72;;
53401;SDS011;39295;45.534;20.034;2023-04-25T02:43:43;8.75;;;7.85;;
53401;SDS011;39295;45.534;20.034;2023-04-25T02:46:09;10.70;;;8.15;;
53401;SDS011;39295;45.534;20.034;2023-04-25T02:48:35;11.50;;;7.90;;
53401;SDS011;39295;45.534;20.034;2023-04-25T02:51:01;11.95;;;8.00;;
53401;SDS011;39295;45.534;20.034;2023-04-25T02:53:28;10.07;;;8.43;;
53401;SDS011;39295;45.534;20.034;2023-04-25T02:55:54;10.00;;;8.50;;
53401;SDS011;39295;45.534;20.034;2023-04-25T02:58:23;10.57;;;8.73;;
53401;SDS011;39295;45.534;20.034;2023-04-25T03:00:49;15.20;;;10.50;;
53401;SDS011;39295;45.534;20.034;2023-04-25T03:03:15;12.18;;;9.75;;
53401;SDS011;39295;45.534;20.034;2023-04-25T03:05:47;12.23;;;10.40;;
53401;SDS011;39295;45.534;20.034;2023-04-25T03:08:13;11.02;;;9.52;;
53401;SDS011;39295;45.534;20.034;2023-04-25T03:10:39;13.35;;;10.55;;
53401;SDS011;39295;45.534;20.034;2023-04-25T03:13:06;13.25;;;10.07;;
53401;SDS011;39295;45.534;20.034;2023-04-25T03:15:32;11.38;;;9.63;;
53401;SDS011;39295;45.534;20.034;2023-04-25T03:17:58;11.25;;;8.75;;
53401;SDS011;39295;45.534;20.034;2023-04-25T03:20:24;11.35;;;8.93;;
53401;SDS011;39295;45.534;20.034;2023-04-25T03:22:50;10.73;;;8.68;;
53401;SDS011;39295;45.534;20.034;2023-04-25T03:25:16;13.57;;;8.10;;
53401;SDS011;39295;45.534;20.034;2023-04-25T03:27:42;9.05;;;7.53;;
53401;SDS011;39295;45.534;20.034;2023-04-25T03:30:08;8.52;;;7.22;;
53401;SDS011;39295;45.534;20.034;2023-04-25T03:32:34;8.05;;;6.93;;
53401;SDS011;39295;45.534;20.034;2023-04-25T03:35:03;8.05;;;6.38;;
53401;SDS011;39295;45.534;20.034;2023-04-25T03:37:29;8.10;;;6.65;;
53401;SDS011;39295;45.534;20.034;2023-04-25T03:39:55;8.35;;;6.43;;
53401;SDS011;39295;45.534;20.034;2023-04-25T03:42:21;9.00;;;6.20;;
53401;SDS011;39295;45.534;20.034;2023-04-25T03:44:51;7.00;;;5.85;;
53401;SDS011;39295;45.534;20.034;2023-04-25T03:47:17;6.72;;;5.25;;
53401;SDS011;39295;45.534;20.034;2023-04-25T03:49:43;6.93;;;5.30;;
53401;SDS011;39295;45.534;20.034;2023-04-25T03:52:09;8.48;;;5.45;;
53401;SDS011;39295;45.534;20.034;2023-04-25T03:54:35;6.03;;;5.15;;
53401;SDS011;39295;45.534;20.034;2023-04-25T03:57:01;7.68;;;5.63;;
53401;SDS011;39295;45.534;20.034;2023-04-25T03:59:28;6.28;;;5.32;;
53401;SDS011;39295;45.534;20.034;2023-04-25T04:01:54;6.00;;;5.38;;
53401;SDS011;39295;45.534;20.034;2023-04-25T04:04:20;9.07;;;5.80;;
53401;SDS011;39295;45.534;20.034;2023-04-25T04:06:46;6.13;;;5.30;;
53401;SDS011;39295;45.534;20.034;2023-04-25T04:09:12;6.93;;;5.80;;
53401;SDS011;39295;45.534;20.034;2023-04-25T04:11:38;6.85;;;4.95;;
53401;SDS011;39295;45.534;20.034;2023-04-25T04:14:05;6.55;;;5.03;;
53401;SDS011;39295;45.534;20.034;2023-04-25T04:16:31;8.38;;;5.50;;
53401;SDS011;39295;45.534;20.034;2023-04-25T04:18:57;8.30;;;5.45;;
53401;SDS011;39295;45.534;20.034;2023-04-25T04:21:23;5.15;;;4.65;;
53401;SDS011;39295;45.534;20.034;2023-04-25T04:23:49;5.57;;;4.78;;
53401;SDS011;39295;45.534;20.034;2023-04-25T04:26:16;5.18;;;4.53;;
53401;SDS011;39295;45.534;20.034;2023-04-25T04:28:43;5.70;;;5.10;;
53401;SDS011;39295;45.534;20.034;2023-04-25T04:31:12;8.20;;;6.43;;
53401;SDS011;39295;45.534;20.034;2023-04-25T04:33:40;8.98;;;6.20;;
53401;SDS011;39295;45.534;20.034;2023-04-25T04:36:06;8.88;;;6.13;;
53401;SDS011;39295;45.534;20.034;2023-04-25T04:38:32;9.73;;;6.20;;
53401;SDS011;39295;45.534;20.034;2023-04-25T04:40:59;8.75;;;5.18;;
53401;SDS011;39295;45.534;20.034;2023-04-25T04:49:33;8.60;;;6.10;;
53401;SDS011;39295;45.534;20.034;2023-04-25T04:51:59;7.43;;;5.10;;
53401;SDS011;39295;45.534;20.034;2023-04-25T04:54:25;11.13;;;6.20;;
53401;SDS011;39295;45.534;20.034;2023-04-25T04:56:52;6.95;;;4.38;;
53401;SDS011;39295;45.534;20.034;2023-04-25T04:59:18;5.40;;;4.07;;
53401;SDS011;39295;45.534;20.034;2023-04-25T05:01:44;5.30;;;4.25;;
53401;SDS011;39295;45.534;20.034;2023-04-25T05:04:11;7.03;;;5.20;;
53401;SDS011;39295;45.534;20.034;2023-04-25T05:06:37;7.22;;;4.50;;
53401;SDS011;39295;45.534;20.034;2023-04-25T05:09:03;4.78;;;4.10;;
53401;SDS011;39295;45.534;20.034;2023-04-25T05:11:30;5.78;;;4.18;;
53401;SDS011;39295;45.534;20.034;2023-04-25T05:13:56;10.13;;;3.88;;
53401;SDS011;39295;45.534;20.034;2023-04-25T05:16:22;4.90;;;4.05;;
53401;SDS011;39295;45.534;20.034;2023-04-25T05:18:48;7.28;;;5.03;;
53401;SDS011;39295;45.534;20.034;2023-04-25T05:21:14;6.63;;;5.03;;
53401;SDS011;39295;45.534;20.034;2023-04-25T05:23:40;5.03;;;4.47;;
53401;SDS011;39295;45.534;20.034;2023-04-25T05:26:06;6.00;;;4.57;;
53401;SDS011;39295;45.534;20.034;2023-04-25T05:28:38;5.43;;;4.43;;
53401;SDS011;39295;45.534;20.034;2023-04-25T05:31:04;6.72;;;4.30;;
53401;SDS011;39295;45.534;20.034;2023-04-25T05:33:31;7.95;;;4.47;;
53401;SDS011;39295;45.534;20.034;2023-04-25T05:35:57;4.65;;;4.00;;
53401;SDS011;39295;45.534;20.034;2023-04-25T05:38:23;6.32;;;3.85;;
53401;SDS011;39295;45.534;20.034;2023-04-25T05:40:49;5.45;;;3.90;;
53401;SDS011;39295;45.534;20.034;2023-04-25T05:49:22;5.63;;;3.60;;
53401;SDS011;39295;45.534;20.034;2023-04-25T05:51:48;4.38;;;3.83;;
53401;SDS011;39295;45.534;20.034;2023-04-25T05:54:14;3.97;;;3.25;;
53401;SDS011;39295;45.534;20.034;2023-04-25T05:56:42;4.10;;;3.63;;
53401;SDS011;39295;45.534;20.034;2023-04-25T05:59:08;5.97;;;3.72;;
53401;SDS011;39295;45.534;20.034;2023-04-25T06:01:34;8.02;;;4.20;;
53401;SDS011;39295;45.534;20.034;2023-04-25T06:04:00;6.45;;;4.40;;
53401;SDS011;39295;45.534;20.034;2023-04-25T06:06:27;5.32;;;4.10;;
53401;SDS011;39295;45.534;20.034;2023-04-25T06:08:53;5.38;;;4.10;;
53401;SDS011;39295;45.534;20.034;2023-04-25T06:11:20;5.53;;;3.95;;
53401;SDS011;39295;45.534;20.034;2023-04-25T06:16:49;6.07;;;4.43;;
53401;SDS011;39295;45.534;20.034;2023-04-25T06:19:15;9.35;;;6.38;;
53401;SDS011;39295;45.534;20.034;2023-04-25T06:21:43;11.35;;;8.38;;
53401;SDS011;39295;45.534;20.034;2023-04-25T06:24:09;7.30;;;6.07;;
53401;SDS011;39295;45.534;20.034;2023-04-25T06:26:35;5.85;;;4.38;;
53401;SDS011;39295;45.534;20.034;2023-04-25T06:29:01;7.70;;;6.63;;
53401;SDS011;39295;45.534;20.034;2023-04-25T06:31:27;6.95;;;5.03;;
53401;SDS011;39295;45.534;20.034;2023-04-25T06:33:58;10.10;;;5.80;;
53401;SDS011;39295;45.534;20.034;2023-04-25T06:36:24;12.93;;;8.68;;
53401;SDS011;39295;45.534;20.034;2023-04-25T06:38:51;6.72;;;6.05;;
53401;SDS011;39295;45.534;20.034;2023-04-25T06:41:17;7.93;;;4.60;;
53401;SDS011;39295;45.534;20.034;2023-04-25T06:52:54;5.68;;;4.78;;
53401;SDS011;39295;45.534;20.034;2023-04-25T06:55:20;7.95;;;5.05;;
53401;SDS011;39295;45.534;20.034;2023-04-25T07:01:03;6.72;;;5.30;;
53401;SDS011;39295;45.534;20.034;2023-04-25T07:03:29;5.95;;;5.03;;
53401;SDS011;39295;45.534;20.034;2023-04-25T07:05:55;12.70;;;5.47;;
53401;SDS011;39295;45.534;20.034;2023-04-25T07:08:21;7.38;;;5.68;;
53401;SDS011;39295;45.534;20.034;2023-04-25T07:10:47;7.28;;;5.80;;
53401;SDS011;39295;45.534;20.034;2023-04-25T07:16:30;11.13;;;6.55;;
53401;SDS011;39295;45.534;20.034;2023-04-25T07:18:56;7.72;;;5.47;;
53401;SDS011;39295;45.534;20.034;2023-04-25T07:21:22;7.72;;;7.03;;
53401;SDS011;39295;45.534;20.034;2023-04-25T07:23:49;6.07;;;4.85;;
53401;SDS011;39295;45.534;20.034;2023-04-25T07:26:15;5.88;;;4.57;;
53401;SDS011;39295;45.534;20.034;2023-04-25T07:34:56;9.02;;;5.13;;
53401;SDS011;39295;45.534;20.034;2023-04-25T07:37:22;8.98;;;4.80;;
53401;SDS011;39295;45.534;20.034;2023-04-25T07:39:48;7.20;;;4.40;;
53401;SDS011;39295;45.534;20.034;2023-04-25T07:42:14;6.95;;;3.72;;
53401;SDS011;39295;45.534;20.034;2023-04-25T07:44:40;7.15;;;5.93;;
53401;SDS011;39295;45.534;20.034;2023-04-25T07:47:07;5.07;;;4.57;;
53401;SDS011;39295;45.534;20.034;2023-04-25T07:49:34;5.53;;;3.53;;
53401;SDS011;39295;45.534;20.034;2023-04-25T07:52:00;6.25;;;3.70;;
53401;SDS011;39295;45.534;20.034;2023-04-25T07:54:26;4.85;;;3.70;;
53401;SDS011;39295;45.534;20.034;2023-04-25T07:56:53;4.05;;;3.65;;
53401;SDS011;39295;45.534;20.034;2023-04-25T07:59:19;3.92;;;3.53;;
53401;SDS011;39295;45.534;20.034;2023-04-25T08:01:45;4.10;;;3.33;;
53401;SDS011;39295;45.534;20.034;2023-04-25T08:04:11;4.07;;;3.55;;
53401;SDS011;39295;45.534;20.034;2023-04-25T08:06:38;3.75;;;3.30;;
53401;SDS011;39295;45.534;20.034;2023-04-25T08:09:04;4.90;;;3.45;;
53401;SDS011;39295;45.534;20.034;2023-04-25T08:11:30;6.60;;;3.58;;
53401;SDS011;39295;45.534;20.034;2023-04-25T08:13:56;5.72;;;3.42;;
53401;SDS011;39295;45.534;20.034;2023-04-25T08:16:22;8.10;;;4.65;;
53401;SDS011;39295;45.534;20.034;2023-04-25T08:18:49;12.40;;;4.63;;
53401;SDS011;39295;45.534;20.034;2023-04-25T08:21:16;7.78;;;3.65;;
53401;SDS011;39295;45.534;20.034;2023-04-25T08:23:42;5.97;;;3.60;;
53401;SDS011;39295;45.534;20.034;2023-04-25T08:26:08;5.45;;;3.90;;
53401;SDS011;39295;45.534;20.034;2023-04-25T08:28:34;4.28;;;3.30;;
53401;SDS011;39295;45.534;20.034;2023-04-25T08:31:00;4.10;;;3.10;;
53401;SDS011;39295;45.534;20.034;2023-04-25T08:33:26;5.45;;;3.50;;
53401;SDS011;39295;45.534;20.034;2023-04-25T08:35:52;4.30;;;3.35;;
53401;SDS011;39295;45.534;20.034;2023-04-25T08:38:18;4.10;;;3.25;;
53401;SDS011;39295;45.534;20.034;2023-04-25T08:40:44;6.43;;;3.30;;
53401;SDS011;39295;45.534;20.034;2023-04-25T08:43:15;4.00;;;2.80;;
53401;SDS011;39295;45.534;20.034;2023-04-25T08:45:43;3.70;;;3.15;;
53401;SDS011;39295;45.534;20.034;2023-04-25T08:48:11;4.60;;;3.15;;
53401;SDS011;39295;45.534;20.034;2023-04-25T08:50:39;6.18;;;3.85;;
53401;SDS011;39295;45.534;20.034;2023-04-25T08:53:05;3.67;;;2.88;;
53401;SDS011;39295;45.534;20.034;2023-04-25T08:55:36;4.00;;;3.03;;
53401;SDS011;39295;45.534;20.034;2023-04-25T08:58:03;3.72;;;3.20;;
53401;SDS011;39295;45.534;20.034;2023-04-25T09:00:30;4.22;;;3.13;;
53401;SDS011;39295;45.534;20.034;2023-04-25T09:02:58;4.45;;;3.13;;
53401;SDS011;39295;45.534;20.034;2023-04-25T09:05:24;5.22;;;3.40;;
53401;SDS011;39295;45.534;20.034;2023-04-25T09:07:50;3.78;;;3.20;;
53401;SDS011;39295;45.534;20.034;2023-04-25T09:10:16;3.72;;;3.33;;
53401;SDS011;39295;45.534;20.034;2023-04-25T09:12:42;4.38;;;3.33;;
53401;SDS011;39295;45.534;20.034;2023-04-25T09:15:24;5.05;;;3.45;;
53401;SDS011;39295;45.534;20.034;2023-04-25T09:17:57;4.00;;;3.10;;
53401;SDS011;39295;45.534;20.034;2023-04-25T09:20:23;4.85;;;4.18;;
53401;SDS011;39295;45.534;20.034;2023-04-25T09:22:49;6.20;;;3.50;;
53401;SDS011;39295;45.534;20.034;2023-04-25T09:25:27;4.47;;;3.50;;
53401;SDS011;39295;45.534;20.034;2023-04-25T09:28:00;5.28;;;3.55;;
53401;SDS011;39295;45.534;20.034;2023-04-25T09:30:30;5.95;;;3.60;;
53401;SDS011;39295;45.534;20.034;2023-04-25T09:32:57;4.00;;;3.28;;
53401;SDS011;39295;45.534;20.034;2023-04-25T09:35:26;7.82;;;3.58;;
53401;SDS011;39295;45.534;20.034;2023-04-25T09:37:52;5.32;;;3.63;;
53401;SDS011;39295;45.534;20.034;2023-04-25T09:40:18;4.03;;;3.60;;
53401;SDS011;39295;45.534;20.034;2023-04-25T09:42:44;4.82;;;3.63;;
53401;SDS011;39295;45.534;20.034;2023-04-25T09:45:12;6.25;;;3.15;;
53401;SDS011;39295;45.534;20.034;2023-04-25T09:47:41;3.88;;;3.42;;
53401;SDS011;39295;45.534;20.034;2023-04-25T09:50:15;4.80;;;3.78;;
53401;SDS011;39295;45.534;20.034;2023-04-25T09:52:42;5.40;;;3.33;;
53401;SDS011;39295;45.534;20.034;2023-04-25T09:55:08;5.25;;;3.55;;
53401;SDS011;39295;45.534;20.034;2023-04-25T09:57:34;3.45;;;2.40;;
53401;SDS011;39295;45.534;20.034;2023-04-25T10:00:05;3.75;;;3.13;;
53401;SDS011;39295;45.534;20.034;2023-04-25T10:02:37;10.05;;;4.20;;
53401;SDS011;39295;45.534;20.034;2023-04-25T10:05:05;5.45;;;2.67;;
53401;SDS011;39295;45.534;20.034;2023-04-25T10:07:31;5.75;;;3.60;;
53401;SDS011;39295;45.534;20.034;2023-04-25T10:10:00;4.28;;;3.88;;
53401;SDS011;39295;45.534;20.034;2023-04-25T10:12:27;3.92;;;3.53;;
53401;SDS011;39295;45.534;20.034;2023-04-25T10:14:54;4.63;;;2.83;;
53401;SDS011;39295;45.534;20.034;2023-04-25T10:17:20;7.63;;;4.38;;
53401;SDS011;39295;45.534;20.034;2023-04-25T10:19:49;5.15;;;3.03;;
53401;SDS011;39295;45.534;20.034;2023-04-25T10:22:29;7.93;;;3.50;;
53401;SDS011;39295;45.534;20.034;2023-04-25T10:24:56;5.88;;;3.88;;
53401;SDS011;39295;45.534;20.034;2023-04-25T10:27:22;7.05;;;3.22;;
53401;SDS011;39295;45.534;20.034;2023-04-25T10:30:02;4.05;;;2.90;;
53401;SDS011;39295;45.534;20.034;2023-04-25T10:32:30;5.75;;;3.92;;
53401;SDS011;39295;45.534;20.034;2023-04-25T10:34:57;6.72;;;3.30;;
53401;SDS011;39295;45.534;20.034;2023-04-25T10:37:24;5.80;;;3.17;;
53401;SDS011;39295;45.534;20.034;2023-04-25T10:39:50;3.58;;;3.15;;
53401;SDS011;39295;45.534;20.034;2023-04-25T10:42:18;3.65;;;2.92;;
53401;SDS011;39295;45.534;20.034;2023-04-25T10:45:00;3.17;;;2.85;;
53401;SDS011;39295;45.534;20.034;2023-04-25T10:47:34;5.00;;;2.97;;
53401;SDS011;39295;45.534;20.034;2023-04-25T10:50:04;4.15;;;2.95;;
53401;SDS011;39295;45.534;20.034;2023-04-25T10:52:30;6.00;;;3.42;;
53401;SDS011;39295;45.534;20.034;2023-04-25T10:54:58;4.32;;;3.65;;
53401;SDS011;39295;45.534;20.034;2023-04-25T10:57:41;3.72;;;3.15;;
53401;SDS011;39295;45.534;20.034;2023-04-25T11:02:42;5.93;;;3.28;;
53401;SDS011;39295;45.534;20.034;2023-04-25T11:05:10;3.80;;;2.80;;
53401;SDS011;39295;45.534;20.034;2023-04-25T11:07:44;5.47;;;3.10;;
53401;SDS011;39295;45.534;20.034;2023-04-25T11:10:15;3.53;;;2.80;;
53401;SDS011;39295;45.534;20.034;2023-04-25T11:12:41;4.55;;;3.00;;
53401;SDS011;39295;45.534;20.034;2023-04-25T11:15:07;3.22;;;2.83;;
53401;SDS011;39295;45.534;20.034;2023-04-25T11:17:34;4.28;;;3.00;;
53401;SDS011;39295;45.534;20.034;2023-04-25T11:20:00;3.42;;;2.90;;
53401;SDS011;39295;45.534;20.034;2023-04-25T11:22:29;3.15;;;2.70;;
53401;SDS011;39295;45.534;20.034;2023-04-25T11:24:55;3.10;;;2.47;;
53401;SDS011;39295;45.534;20.034;2023-04-25T11:27:21;4.40;;;3.10;;
53401;SDS011;39295;45.534;20.034;2023-04-25T11:29:49;10.93;;;3.60;;
53401;SDS011;39295;45.534;20.034;2023-04-25T11:32:16;5.07;;;3.53;;
53401;SDS011;39295;45.534;20.034;2023-04-25T11:34:43;4.30;;;3.90;;
53401;SDS011;39295;45.534;20.034;2023-04-25T11:37:10;4.10;;;3.33;;
53401;SDS011;39295;45.534;20.034;2023-04-25T11:39:42;5.20;;;4.35;;
53401;SDS011;39295;45.534;20.034;2023-04-25T11:42:09;4.68;;;3.30;;
53401;SDS011;39295;45.534;20.034;2023-04-25T11:44:37;4.85;;;3.63;;
53401;SDS011;39295;45.534;20.034;2023-04-25T11:47:03;4.95;;;3.50;;
53401;SDS011;39295;45.534;20.034;2023-04-25T11:49:30;3.53;;;3.15;;
53401;SDS011;39295;45.534;20.034;2023-04-25T11:51:57;4.70;;;3.85;;
53401;SDS011;39295;45.534;20.034;2023-04-25T11:54:23;5.75;;;4.82;;
53401;SDS011;39295;45.534;20.034;2023-04-25T11:56:49;6.03;;;4.00;;
53401;SDS011;39295;45.534;20.034;2023-04-25T11:59:15;7.70;;;4.63;;
53401;SDS011;39295;45.534;20.034;2023-04-25T12:01:48;9.40;;;4.70;;
53401;SDS011;39295;45.534;20.034;2023-04-25T12:04:18;13.68;;;6.18;;
53401;SDS011;39295;45.534;20.034;2023-04-25T12:06:45;8.80;;;5.68;;
53401;SDS011;39295;45.534;20.034;2023-04-25T12:09:13;6.78;;;4.47;;
53401;SDS011;39295;45.534;20.034;2023-04-25T12:12:02;4.10;;;2.92;;
53401;SDS011;39295;45.534;20.034;2023-04-25T12:14:36;3.58;;;2.50;;
53401;SDS011;39295;45.534;20.034;2023-04-25T12:17:03;3.00;;;1.80;;
53401;SDS011;39295;45.534;20.034;2023-04-25T12:19:33;5.20;;;3.58;;
53401;SDS011;39295;45.534;20.034;2023-04-25T12:22:00;6.00;;;2.95;;
53401;SDS011;39295;45.534;20.034;2023-04-25T12:24:28;4.32;;;3.10;;
53401;SDS011;39295;45.534;20.034;2023-04-25T12:27:07;8.38;;;2.67;;
53401;SDS011;39295;45.534;20.034;2023-04-25T12:29:33;9.50;;;5.40;;
53401;SDS011;39295;45.534;20.034;2023-04-25T12:32:00;8.68;;;4.65;;
53401;SDS011;39295;45.534;20.034;2023-04-25T12:34:27;9.65;;;6.22;;
53401;SDS011;39295;45.534;20.034;2023-04-25T12:36:53;8.30;;;4.18;;
53401;SDS011;39295;45.534;20.034;2023-04-25T12:39:20;17.27;;;10.15;;
53401;SDS011;39295;45.534;20.034;2023-04-25T12:41:50;4.40;;;3.60;;
53401;SDS011;39295;45.534;20.034;2023-04-25T12:44:18;7.85;;;3.90;;
53401;SDS011;39295;45.534;20.034;2023-04-25T12:46:45;8.55;;;3.50;;
53401;SDS011;39295;45.534;20.034;2023-04-25T12:49:11;3.28;;;2.72;;
53401;SDS011;39295;45.534;20.034;2023-04-25T12:51:37;5.20;;;3.40;;
53401;SDS011;39295;45.534;20.034;2023-04-25T12:54:04;6.65;;;3.33;;
53401;SDS011;39295;45.534;20.034;2023-04-25T12:56:31;4.18;;;3.10;;
53401;SDS011;39295;45.534;20.034;2023-04-25T12:58:57;2.45;;;2.20;;
53401;SDS011;39295;45.534;20.034;2023-04-25T13:01:23;3.45;;;2.88;;
53401;SDS011;39295;45.534;20.034;2023-04-25T13:03:49;6.40;;;2.60;;
53401;SDS011;39295;45.534;20.034;2023-04-25T13:06:16;16.45;;;6.97;;
53401;SDS011;39295;45.534;20.034;2023-04-25T13:08:42;5.40;;;3.17;;
53401;SDS011;39295;45.534;20.034;2023-04-25T13:11:08;8.20;;;4.38;;
53401;SDS011;39295;45.534;20.034;2023-04-25T13:13:35;4.38;;;3.45;;
53401;SDS011;39295;45.534;20.034;2023-04-25T13:16:01;5.32;;;3.55;;
53401;SDS011;39295;45.534;20.034;2023-04-25T13:18:30;9.27;;;4.88;;
53401;SDS011;39295;45.534;20.034;2023-04-25T13:20:57;4.93;;;3.63;;
53401;SDS011;39295;45.534;20.034;2023-04-25T13:23:24;5.82;;;3.70;;
53401;SDS011;39295;45.534;20.034;2023-04-25T13:25:51;5.60;;;3.15;;
53401;SDS011;39295;45.534;20.034;2023-04-25T13:28:17;7.55;;;5.28;;
53401;SDS011;39295;45.534;20.034;2023-04-25T13:33:46;3.13;;;2.42;;
53401;SDS011;39295;45.534;20.034;2023-04-25T13:36:12;4.93;;;3.42;;
53401;SDS011;39295;45.534;20.034;2023-04-25T13:38:39;4.93;;;3.30;;
53401;SDS011;39295;45.534;20.034;2023-04-25T13:41:08;6.70;;;3.90;;
53401;SDS011;39295;45.534;20.034;2023-04-25T13:43:36;14.05;;;7.10;;
53401;SDS011;39295;45.534;20.034;2023-04-25T13:46:02;9.77;;;5.60;;
53401;SDS011;39295;45.534;20.034;2023-04-25T13:48:28;7.05;;;4.80;;
53401;SDS011;39295;45.534;20.034;2023-04-25T13:50:54;4.78;;;3.00;;
53401;SDS011;39295;45.534;20.034;2023-04-25T13:53:20;6.90;;;4.18;;
53401;SDS011;39295;45.534;20.034;2023-04-25T13:55:46;5.55;;;2.90;;
53401;SDS011;39295;45.534;20.034;2023-04-25T13:58:12;2.90;;;2.60;;
53401;SDS011;39295;45.534;20.034;2023-04-25T14:03:55;3.42;;;2.28;;
53401;SDS011;39295;45.534;20.034;2023-04-25T14:06:21;4.15;;;2.55;;
53401;SDS011;39295;45.534;20.034;2023-04-25T14:08:51;7.82;;;2.80;;
53401;SDS011;39295;45.534;20.034;2023-04-25T14:11:18;3.60;;;2.75;;
53401;SDS011;39295;45.534;20.034;2023-04-25T14:13:44;6.50;;;3.70;;
53401;SDS011;39295;45.534;20.034;2023-04-25T14:16:10;7.03;;;3.60;;
53401;SDS011;39295;45.534;20.034;2023-04-25T14:18:36;4.35;;;2.08;;
53401;SDS011;39295;45.534;20.034;2023-04-25T14:21:02;4.22;;;2.15;;
53401;SDS011;39295;45.534;20.034;2023-04-25T14:23:28;4.05;;;2.63;;
53401;SDS011;39295;45.534;20.034;2023-04-25T14:25:54;3.28;;;2.42;;
53401;SDS011;39295;45.534;20.034;2023-04-25T14:28:20;5.15;;;2.67;;
53401;SDS011;39295;45.534;20.034;2023-04-25T14:30:46;4.53;;;3.47;;
53401;SDS011;39295;45.534;20.034;2023-04-25T14:33:12;7.47;;;3.60;;
53401;SDS011;39295;45.534;20.034;2023-04-25T14:35:39;5.35;;;3.90;;
53401;SDS011;39295;45.534;20.034;2023-04-25T14:38:05;8.07;;;4.35;;
53401;SDS011;39295;45.534;20.034;2023-04-25T14:40:32;5.53;;;3.85;;
53401;SDS011;39295;45.534;20.034;2023-04-25T14:42:58;4.35;;;2.42;;
53401;SDS011;39295;45.534;20.034;2023-04-25T14:45:24;5.03;;;3.00;;
53401;SDS011;39295;45.534;20.034;2023-04-25T14:47:50;5.28;;;2.35;;
53401;SDS011;39295;45.534;20.034;2023-04-25T14:50:17;4.80;;;2.65;;
53401;SDS011;39295;45.534;20.034;2023-04-25T14:52:43;2.15;;;1.75;;
53401;SDS011;39295;45.534;20.034;2023-04-25T14:55:10;3.47;;;2.47;;
53401;SDS011;39295;45.534;20.034;2023-04-25T14:57:36;3.78;;;2.60;;
53401;SDS011;39295;45.534;20.034;2023-04-25T15:00:04;5.38;;;3.17;;
53401;SDS011;39295;45.534;20.034;2023-04-25T15:02:34;3.97;;;3.10;;
53401;SDS011;39295;45.534;20.034;2023-04-25T15:05:00;4.03;;;2.97;;
53401;SDS011;39295;45.534;20.034;2023-04-25T15:07:26;4.88;;;3.40;;
53401;SDS011;39295;45.534;20.034;2023-04-25T15:09:52;7.03;;;4.18;;
53401;SDS011;39295;45.534;20.034;2023-04-25T15:12:20;4.50;;;3.03;;